createdAt,value
2019-03-30T08:48:56.205Z,15.7
2019-03-30T08:49:08.901Z,16.4
2019-03-30T08:49:21.543Z,17
2019-03-30T08:49:35.937Z,17.6
2019-03-30T08:49:48.594Z,17
2019-03-30T08:50:01.343Z,22.799999
2019-03-30T08:50:14.165Z,40.200001
2019-03-30T08:50:28.051Z,56.099998
2019-03-30T08:50:40.912Z,58.799999
2019-03-30T08:50:53.707Z,65.699997
2019-03-30T08:51:06.553Z,66.599998
2019-03-30T08:51:21.571Z,67.599998
2019-03-30T08:51:34.484Z,62.5
2019-03-30T08:51:47.364Z,58.200001
2019-03-30T08:52:00.320Z,60.900002
2019-03-30T08:52:13.641Z,60.900002
2019-03-30T08:52:27.138Z,61.400002
2019-03-30T08:52:40.005Z,61.700001
2019-03-30T08:52:52.917Z,52.700001
2019-03-30T08:53:05.773Z,48
2019-03-30T08:53:18.662Z,46
2019-03-30T08:53:32.190Z,53.599998
2019-03-30T08:53:54.637Z,56.400002
2019-03-30T08:54:04.824Z,50.799999
2019-03-30T08:54:17.637Z,52.200001
2019-03-30T08:54:30.473Z,59.400002
2019-03-30T08:54:43.306Z,54.799999
2019-03-30T08:54:56.149Z,57.599998
2019-03-30T08:55:08.972Z,59.599998
2019-03-30T08:55:22.405Z,62.900002
2019-03-30T08:55:35.400Z,57.200001
2019-03-30T08:55:48.324Z,57.299999
2019-03-30T08:56:01.116Z,57.599998
2019-03-30T08:56:14.003Z,59.299999
2019-03-30T08:56:28.793Z,58.599998
2019-03-30T08:56:41.726Z,55.900002
2019-03-30T08:56:54.700Z,55.900002
2019-03-30T08:57:08.417Z,57.5
2019-03-30T08:57:21.259Z,54.799999
2019-03-30T08:57:34.080Z,52.900002
2019-03-30T08:57:47.835Z,50.599998
2019-03-30T08:58:00.678Z,51.900002
2019-03-30T08:58:13.458Z,51.900002
2019-03-30T08:58:26.344Z,52.099998
2019-03-30T08:58:39.942Z,43.900002
2019-03-30T08:58:52.739Z,35.5
2019-03-30T08:59:06.649Z,26.799999
2019-03-30T08:59:21.023Z,15.8
2019-03-30T08:59:34.790Z,18.6
2019-03-30T08:59:47.691Z,17.5
2019-03-30T09:00:01.497Z,15.9
2019-03-30T09:00:14.318Z,16.299999
2019-03-30T09:00:27.321Z,18.700001
2019-03-30T09:00:40.256Z,23.9
2019-03-30T09:00:53.612Z,30.6
2019-03-30T09:01:06.674Z,41.5
2019-03-30T09:01:19.444Z,41.400002
2019-03-30T09:01:32.143Z,35.900002
2019-03-30T09:01:44.826Z,31
2019-03-30T09:01:58.397Z,21.799999
2019-03-30T09:02:11.098Z,18.4
2019-03-30T09:02:23.728Z,18.4
2019-03-30T09:02:37.341Z,18.1
2019-03-30T09:02:49.908Z,19.5
2019-03-30T09:03:03.269Z,19.9
2019-03-30T09:03:16.894Z,18.299999
2019-03-30T09:03:29.534Z,17.700001
2019-03-30T09:03:44.105Z,16.700001
2019-03-30T09:03:56.724Z,16.700001
2019-03-30T09:04:09.318Z,17.700001
2019-03-30T09:04:23.755Z,16.1
2019-03-30T09:04:37.480Z,15.3
2019-03-30T09:04:50.739Z,15.1
2019-03-30T09:05:03.323Z,15.4
2019-03-30T09:05:16.457Z,16.200001
2019-03-30T09:05:29.071Z,16.200001
2019-03-30T09:05:41.633Z,15.7
2019-03-30T09:05:54.241Z,16.200001
2019-03-30T09:06:07.853Z,16.200001
2019-03-30T09:06:21.270Z,15.7
2019-03-30T09:06:33.861Z,15.5
2019-03-30T09:06:48.657Z,15.3
2019-03-30T09:07:01.262Z,16.299999
2019-03-30T09:07:14.105Z,15.9
2019-03-30T09:07:27.603Z,16.200001
2019-03-30T09:07:40.883Z,16
2019-03-30T09:07:53.560Z,15.1
2019-03-30T09:08:06.228Z,15.1
2019-03-30T09:08:19.857Z,14.9
2019-03-30T09:08:34.826Z,15.2
2019-03-30T09:08:48.508Z,16.1
2019-03-30T09:09:01.896Z,15.3
2019-03-30T09:09:15.150Z,14.2
2019-03-30T09:09:27.791Z,15.2
2019-03-30T09:09:41.507Z,15.9
2019-03-30T09:09:54.167Z,16
2019-03-30T09:10:06.746Z,15.4
2019-03-30T09:10:19.396Z,14.8
2019-03-30T09:10:32.897Z,14.5
2019-03-30T09:10:45.551Z,14.6
2019-03-30T09:10:58.156Z,14.8
2019-03-30T09:11:10.729Z,14.9
2019-03-30T09:11:23.349Z,15.4
2019-03-30T09:11:35.937Z,15.5
2019-03-30T09:11:49.550Z,15.7
2019-03-30T09:12:03.017Z,15.8
2019-03-30T09:12:16.534Z,16
2019-03-30T09:12:29.142Z,15.3
2019-03-30T09:12:41.754Z,15.3
2019-03-30T09:12:54.369Z,15.5
2019-03-30T09:13:06.971Z,15.4
2019-03-30T09:13:20.388Z,15.3
2019-03-30T09:13:34.035Z,15
2019-03-30T09:13:47.150Z,15.7
2019-03-30T09:13:59.739Z,15.6
2019-03-30T09:14:12.330Z,15.3
2019-03-30T09:14:25.750Z,14.8
2019-03-30T09:14:40.033Z,16.1
2019-03-30T09:14:53.532Z,16.4
2019-03-30T09:15:06.114Z,16.700001
2019-03-30T09:15:18.755Z,15.5
2019-03-30T09:15:31.342Z,15.8
2019-03-30T09:15:44.166Z,15.7
2019-03-30T09:15:58.553Z,16.5
2019-03-30T09:16:12.930Z,15.4
2019-03-30T09:16:25.528Z,15.7
2019-03-30T09:16:38.183Z,16.700001
2019-03-30T09:16:50.769Z,16.5
2019-03-30T09:17:03.409Z,15.7
2019-03-30T09:17:16.047Z,15.3
2019-03-30T09:17:28.709Z,15.6
2019-03-30T09:17:44.284Z,15.1
2019-03-30T09:17:58.026Z,15.9
2019-03-30T09:18:11.139Z,15.8
2019-03-30T09:18:23.750Z,16.1
2019-03-30T09:18:37.817Z,16.200001
2019-03-30T09:18:50.475Z,16.6
2019-03-30T09:19:03.582Z,16.700001
2019-03-30T09:19:16.173Z,16.799999
2019-03-30T09:19:29.535Z,16.700001
2019-03-30T09:19:42.142Z,16.4
2019-03-30T09:19:54.794Z,16.9
2019-03-30T09:20:07.439Z,16.799999
2019-03-30T09:20:20.720Z,16.9
2019-03-30T09:20:33.348Z,16.6
2019-03-30T09:20:45.936Z,15.6
2019-03-30T09:20:58.639Z,15.8
2019-03-30T09:21:12.076Z,15.8
2019-03-30T09:21:26.342Z,17
2019-03-30T09:21:39.944Z,17.4
2019-03-30T09:21:52.533Z,16.6
2019-03-30T09:22:05.898Z,16.9
2019-03-30T09:22:18.525Z,16.299999
2019-03-30T09:22:31.213Z,15.7
2019-03-30T09:22:43.797Z,15.5
2019-03-30T09:22:56.407Z,15.5
2019-03-30T09:23:08.986Z,16
2019-03-30T09:23:21.588Z,17.5
2019-03-30T09:23:35.916Z,17
2019-03-30T09:23:50.194Z,16
2019-03-30T09:24:12.263Z,16.4
2019-03-30T09:24:24.909Z,15.9
2019-03-30T09:24:37.571Z,15.3
2019-03-30T09:24:50.211Z,14.5
2019-03-30T09:25:02.882Z,15
2019-03-30T09:25:15.503Z,15.5
2019-03-30T09:25:28.096Z,14.9
2019-03-30T09:25:42.792Z,15.1
2019-03-30T09:25:57.274Z,15.1
2019-03-30T09:26:11.425Z,15.9
2019-03-30T09:26:25.067Z,16.4
2019-03-30T09:26:37.734Z,16.9
2019-03-30T09:26:51.366Z,16.9
2019-03-30T09:27:05.795Z,16.1
2019-03-30T09:27:19.292Z,15.7
2019-03-30T09:27:34.405Z,15.9
2019-03-30T09:27:47.807Z,17
2019-03-30T09:28:01.942Z,17.4
2019-03-30T09:28:16.297Z,16.200001
2019-03-30T09:28:30.892Z,15.5
2019-03-30T09:28:44.769Z,15.4
2019-03-30T09:28:57.374Z,15.8
2019-03-30T09:29:10.002Z,16.4
2019-03-30T09:29:22.686Z,16.6
2019-03-30T09:29:35.310Z,16.299999
2019-03-30T09:29:48.914Z,15.7
2019-03-30T09:30:02.537Z,17.1
2019-03-30T09:30:16.645Z,17
2019-03-30T09:30:30.039Z,15.7
2019-03-30T09:30:43.903Z,16.1
2019-03-30T09:30:57.330Z,16.5
2019-03-30T09:31:10.540Z,16.6
2019-03-30T09:31:23.938Z,16.4
2019-03-30T09:31:37.307Z,16.1
2019-03-30T09:31:49.903Z,16.799999
2019-03-30T09:32:14.006Z,16.1
2019-03-30T09:32:24.643Z,16.299999
2019-03-30T09:32:38.133Z,15.6
2019-03-30T09:32:52.769Z,15.8
2019-03-30T09:33:06.389Z,16.5
2019-03-30T09:33:19.743Z,16.9
2019-03-30T09:33:34.405Z,16.799999
2019-03-30T09:33:47.010Z,16.200001
2019-03-30T09:34:00.528Z,15.5
2019-03-30T09:34:14.551Z,15
2019-03-30T09:34:27.168Z,15.6
2019-03-30T09:34:39.823Z,15.8
2019-03-30T09:34:53.908Z,16.1
2019-03-30T09:35:06.489Z,16.9
2019-03-30T09:35:19.131Z,17.5
2019-03-30T09:35:32.648Z,17.1
2019-03-30T09:35:46.253Z,16.4
2019-03-30T09:35:58.868Z,16.6
2019-03-30T09:36:12.154Z,16.6
2019-03-30T09:36:24.843Z,16.4
2019-03-30T09:36:37.456Z,16.5
2019-03-30T09:36:50.699Z,16.1
2019-03-30T09:37:03.258Z,15.1
2019-03-30T09:37:15.883Z,15
2019-03-30T09:37:29.223Z,14.8
2019-03-30T09:37:41.822Z,15.4
2019-03-30T09:37:55.892Z,15.8
2019-03-30T09:38:08.517Z,15.1
2019-03-30T09:38:25.428Z,15.6
2019-03-30T09:38:39.932Z,15.8
2019-03-30T09:38:52.516Z,16.200001
2019-03-30T09:39:05.106Z,16.299999
2019-03-30T09:39:17.700Z,15.7
2019-03-30T09:39:30.365Z,17.4
2019-03-30T09:39:44.644Z,17.799999
2019-03-30T09:39:57.231Z,16.700001
2019-03-30T09:40:09.824Z,15.3
2019-03-30T09:40:22.445Z,15.4
2019-03-30T09:40:35.039Z,16.5
2019-03-30T09:40:47.713Z,16.6
2019-03-30T09:41:00.438Z,16.299999
2019-03-30T09:41:14.036Z,15
2019-03-30T09:41:27.674Z,14.9
2019-03-30T09:41:40.903Z,15.4
2019-03-30T09:41:54.036Z,15.8
2019-03-30T09:42:06.628Z,15.8
2019-03-30T09:42:19.226Z,16.1
2019-03-30T09:42:31.904Z,16.4
2019-03-30T09:42:45.199Z,16.1
2019-03-30T09:42:57.800Z,17
2019-03-30T09:43:10.381Z,16.1
2019-03-30T09:43:22.976Z,15.9
2019-03-30T09:43:37.612Z,16
2019-03-30T09:43:50.142Z,15.4
2019-03-30T09:44:03.529Z,16.799999
2019-03-30T09:44:17.130Z,16.5
2019-03-30T09:44:29.730Z,14.7
2019-03-30T09:44:42.367Z,14.1
2019-03-30T09:44:54.954Z,15.4
2019-03-30T09:45:07.558Z,16.4
2019-03-30T09:45:20.136Z,16.799999
2019-03-30T09:45:32.741Z,16.5
2019-03-30T09:45:45.954Z,16.299999
2019-03-30T09:45:58.554Z,15.9
2019-03-30T09:46:12.794Z,15.7
2019-03-30T09:46:25.412Z,16.299999
2019-03-30T09:46:37.985Z,16.200001
2019-03-30T09:46:51.310Z,16.299999
2019-03-30T09:47:04.945Z,15.8
2019-03-30T09:47:17.543Z,16.1
2019-03-30T09:47:30.182Z,16.299999
2019-03-30T09:47:42.812Z,16.9
2019-03-30T09:47:55.461Z,17.200001
2019-03-30T09:48:08.110Z,16.4
2019-03-30T09:48:22.800Z,16.1
2019-03-30T09:48:35.550Z,17
2019-03-30T09:48:48.267Z,18.1
2019-03-30T09:49:00.986Z,16.700001
2019-03-30T09:49:13.695Z,17
2019-03-30T09:49:26.360Z,16.299999
2019-03-30T09:49:39.967Z,15.7
2019-03-30T09:49:52.656Z,15.1
2019-03-30T09:50:07.420Z,16
2019-03-30T09:50:20.038Z,17.200001
2019-03-30T09:50:32.623Z,16
2019-03-30T09:50:45.225Z,14.8
2019-03-30T09:50:57.818Z,15.2
2019-03-30T09:51:10.418Z,16.5
2019-03-30T09:51:23.021Z,16.5
2019-03-30T09:51:35.644Z,15.9
2019-03-30T09:51:48.239Z,15
2019-03-30T09:52:00.898Z,14.2
2019-03-30T09:52:13.472Z,15.1
2019-03-30T09:52:26.065Z,15.5
2019-03-30T09:52:40.162Z,16.200001
2019-03-30T09:52:53.492Z,16.700001
2019-03-30T09:53:07.103Z,16.9
2019-03-30T09:53:19.739Z,16.4
2019-03-30T09:53:32.344Z,16.299999
2019-03-30T09:53:44.961Z,15.7
2019-03-30T09:53:58.403Z,16.700001
2019-03-30T09:54:23.348Z,16.1
2019-03-30T09:54:31.286Z,14.6
2019-03-30T09:54:43.894Z,16
2019-03-30T09:54:57.520Z,16.5
2019-03-30T09:55:10.105Z,16
2019-03-30T09:55:26.961Z,16.1
2019-03-30T09:55:38.008Z,15.9
2019-03-30T09:55:52.446Z,17.1
2019-03-30T09:56:05.025Z,17.1
2019-03-30T09:56:17.638Z,16.5
2019-03-30T09:56:33.119Z,15.5
2019-03-30T09:56:45.757Z,15.8
2019-03-30T09:56:59.391Z,16
2019-03-30T09:57:12.002Z,15.4
2019-03-30T09:57:24.602Z,14.7
2019-03-30T09:57:37.302Z,14.3
2019-03-30T09:57:49.924Z,14.5
2019-03-30T09:58:03.924Z,15.2
2019-03-30T09:58:16.523Z,15.5
2019-03-30T09:58:29.121Z,14.6
2019-03-30T09:58:42.409Z,15.7
2019-03-30T09:58:54.997Z,17
2019-03-30T09:59:07.614Z,16.6
2019-03-30T09:59:20.196Z,16.5
2019-03-30T09:59:33.895Z,16.1
2019-03-30T09:59:46.493Z,15.1
2019-03-30T09:59:59.112Z,15
2019-03-30T10:00:13.043Z,16.700001
2019-03-30T10:00:26.409Z,17.6
2019-03-30T10:00:38.995Z,15.7
2019-03-30T10:00:51.577Z,14.8
2019-03-30T10:01:04.699Z,14.8
2019-03-30T10:01:18.159Z,15.2
2019-03-30T10:01:31.717Z,15.6
2019-03-30T10:01:44.420Z,15
2019-03-30T10:01:57.063Z,16
2019-03-30T10:02:10.525Z,16.5
2019-03-30T10:02:23.692Z,17.5
2019-03-30T10:02:38.909Z,16.799999
2019-03-30T10:02:51.552Z,16
2019-03-30T10:03:06.128Z,16.6
2019-03-30T10:03:18.228Z,16.4
2019-03-30T10:03:30.886Z,15.4
2019-03-30T10:03:43.736Z,15.2
2019-03-30T10:03:57.296Z,16.1
2019-03-30T10:04:09.928Z,15.7
2019-03-30T10:04:23.560Z,14.7
2019-03-30T10:04:39.791Z,14.9
2019-03-30T10:04:53.058Z,15.2
2019-03-30T10:05:06.531Z,15.8
2019-03-30T10:05:19.681Z,15.6
2019-03-30T10:05:32.958Z,14.3
2019-03-30T10:05:45.657Z,14.5
2019-03-30T10:05:58.220Z,15.1
2019-03-30T10:06:10.825Z,15.6
2019-03-30T10:06:33.747Z,16.200001
2019-03-30T10:06:43.105Z,16.5
2019-03-30T10:06:56.473Z,16
2019-03-30T10:07:11.142Z,15.1
2019-03-30T10:07:24.852Z,14.8
2019-03-30T10:07:37.491Z,14.6
2019-03-30T10:07:50.111Z,14.4
2019-03-30T10:08:02.713Z,15
2019-03-30T10:08:15.333Z,16.5
2019-03-30T10:08:27.935Z,16.4
2019-03-30T10:08:41.495Z,17
2019-03-30T10:08:54.192Z,17
2019-03-30T10:09:06.793Z,15.8
2019-03-30T10:09:19.620Z,17
2019-03-30T10:09:32.300Z,17.700001
2019-03-30T10:09:47.945Z,18.6
2019-03-30T10:10:00.577Z,16.5
2019-03-30T10:10:14.231Z,15.5
2019-03-30T10:10:26.881Z,15.3
2019-03-30T10:10:39.454Z,15.6
2019-03-30T10:10:52.043Z,15.3
2019-03-30T10:11:04.665Z,15.5
2019-03-30T10:11:17.270Z,15
2019-03-30T10:11:29.826Z,15.1
2019-03-30T10:11:43.080Z,14.6
2019-03-30T10:11:55.678Z,14.4
2019-03-30T10:12:09.253Z,14.3
2019-03-30T10:12:21.830Z,14.5
2019-03-30T10:12:34.480Z,14.3
2019-03-30T10:12:48.095Z,14.4
2019-03-30T10:13:01.685Z,14.6
2019-03-30T10:13:14.309Z,15.9
2019-03-30T10:13:27.902Z,15.9
2019-03-30T10:13:40.532Z,14.7
2019-03-30T10:13:53.228Z,15.9
2019-03-30T10:14:06.798Z,17.200001
2019-03-30T10:14:19.405Z,15.9
2019-03-30T10:14:31.992Z,15.9
2019-03-30T10:14:44.562Z,16.200001
2019-03-30T10:14:57.170Z,16.6
2019-03-30T10:15:09.794Z,16.200001
2019-03-30T10:15:22.439Z,16.700001
2019-03-30T10:15:35.062Z,16.5
2019-03-30T10:15:47.692Z,16.6
2019-03-30T10:16:00.277Z,16.200001
2019-03-30T10:16:12.957Z,15.8
2019-03-30T10:16:25.669Z,15.8
2019-03-30T10:16:38.312Z,16.200001
2019-03-30T10:16:53.020Z,15.5
2019-03-30T10:17:05.718Z,16.1
2019-03-30T10:17:18.500Z,17.799999
2019-03-30T10:17:31.210Z,16.9
2019-03-30T10:17:43.894Z,16.299999
2019-03-30T10:17:56.604Z,15.4
2019-03-30T10:18:10.309Z,14.5
2019-03-30T10:18:23.027Z,15.5
2019-03-30T10:18:38.606Z,15.9
2019-03-30T10:18:51.342Z,15.7
2019-03-30T10:19:04.066Z,15.3
2019-03-30T10:19:16.798Z,15.8
2019-03-30T10:19:33.390Z,16.5
2019-03-30T10:19:53.162Z,16.6
2019-03-30T10:20:08.116Z,15.8
2019-03-30T10:20:21.822Z,15.5
2019-03-30T10:20:34.549Z,15.8
2019-03-30T10:20:47.277Z,15.9
2019-03-30T10:20:59.940Z,16.200001
2019-03-30T10:21:12.570Z,15.4
2019-03-30T10:21:25.225Z,15.9
2019-03-30T10:21:38.857Z,15.8
2019-03-30T10:21:51.481Z,15.9
2019-03-30T10:22:04.664Z,15.8
2019-03-30T10:22:17.355Z,15.9
2019-03-30T10:22:30.149Z,15.5
2019-03-30T10:22:44.875Z,16.700001
2019-03-30T10:22:57.575Z,16.9
2019-03-30T10:23:10.288Z,16.5
2019-03-30T10:23:23.094Z,17.5
2019-03-30T10:23:36.844Z,17.200001
2019-03-30T10:23:49.533Z,16.1
2019-03-30T10:24:02.174Z,14.8
2019-03-30T10:24:14.877Z,15.1
2019-03-30T10:24:37.714Z,14.9
2019-03-30T10:24:47.241Z,16.700001
2019-03-30T10:25:01.915Z,17.299999
2019-03-30T10:25:14.641Z,16.9
2019-03-30T10:25:27.391Z,16.6
2019-03-30T10:25:40.122Z,15.9
2019-03-30T10:25:54.842Z,16.1
2019-03-30T10:26:08.321Z,16.9
2019-03-30T10:26:22.026Z,16.5
2019-03-30T10:26:34.707Z,15.9
2019-03-30T10:26:47.392Z,16.5
2019-03-30T10:27:00.121Z,15.4
2019-03-30T10:27:12.785Z,15.5
2019-03-30T10:27:25.445Z,15.6
2019-03-30T10:27:38.150Z,15.2
2019-03-30T10:27:50.841Z,15.5
2019-03-30T10:28:03.516Z,15.4
2019-03-30T10:28:16.235Z,15.8
2019-03-30T10:28:28.892Z,17
2019-03-30T10:28:41.684Z,16.9
2019-03-30T10:28:56.357Z,15.9
2019-03-30T10:29:10.106Z,16.200001
2019-03-30T10:29:22.968Z,16.5
2019-03-30T10:29:35.701Z,16.299999
2019-03-30T10:29:49.388Z,15.8
2019-03-30T10:30:02.105Z,16.4
2019-03-30T10:30:14.813Z,16.799999
2019-03-30T10:30:27.564Z,17.200001
2019-03-30T10:30:40.264Z,16.5
2019-03-30T10:30:52.924Z,16.4
2019-03-30T10:31:05.643Z,17.200001
2019-03-30T10:31:18.303Z,17
2019-03-30T10:31:31.043Z,16.200001
2019-03-30T10:31:43.814Z,15.2
2019-03-30T10:31:59.730Z,15.3
2019-03-30T10:32:11.340Z,15.7
2019-03-30T10:32:25.116Z,16.200001
2019-03-30T10:32:37.799Z,16.700001
2019-03-30T10:32:50.603Z,16.200001
2019-03-30T10:33:03.308Z,16.5
2019-03-30T10:33:15.991Z,16
2019-03-30T10:33:28.667Z,16.6
2019-03-30T10:33:41.375Z,15.9
2019-03-30T10:33:55.072Z,17.299999
2019-03-30T10:34:07.797Z,17.799999
2019-03-30T10:34:20.465Z,18.299999
2019-03-30T10:34:33.187Z,17.200001
2019-03-30T10:34:46.853Z,15.6
2019-03-30T10:35:00.545Z,15.7
2019-03-30T10:35:13.245Z,16
2019-03-30T10:35:25.950Z,15.5
2019-03-30T10:35:38.656Z,15.8
2019-03-30T10:35:51.374Z,15.9
2019-03-30T10:36:05.030Z,15.6
2019-03-30T10:36:18.431Z,15.4
2019-03-30T10:36:32.168Z,16.299999
2019-03-30T10:36:44.823Z,17.1
2019-03-30T10:36:57.453Z,17.200001
2019-03-30T10:37:10.901Z,16.200001
2019-03-30T10:37:23.532Z,15.2
2019-03-30T10:37:36.261Z,16.299999
2019-03-30T10:37:49.114Z,17.5
2019-03-30T10:38:01.693Z,16.5
2019-03-30T10:38:14.413Z,16.299999
2019-03-30T10:38:27.060Z,17.4
2019-03-30T10:38:39.718Z,16.4
2019-03-30T10:38:52.362Z,17
2019-03-30T10:39:05.111Z,16
2019-03-30T10:39:17.829Z,16.299999
2019-03-30T10:39:30.492Z,16.6
2019-03-30T10:39:43.192Z,16.9
2019-03-30T10:39:55.798Z,16.700001
2019-03-30T10:40:09.546Z,16.9
2019-03-30T10:40:24.345Z,17.200001
2019-03-30T10:40:37.045Z,16.6
2019-03-30T10:40:49.752Z,16.6
2019-03-30T10:41:02.421Z,16.1
2019-03-30T10:41:15.162Z,15.4
2019-03-30T10:41:27.902Z,15.8
2019-03-30T10:41:40.597Z,17.299999
2019-03-30T10:41:53.330Z,17.9
2019-03-30T10:42:06.044Z,17.5
2019-03-30T10:42:20.104Z,16.9
2019-03-30T10:42:32.819Z,17.1
2019-03-30T10:42:45.598Z,17.1
2019-03-30T10:43:00.358Z,16.9
2019-03-30T10:43:13.025Z,16.700001
2019-03-30T10:43:25.768Z,17.6
2019-03-30T10:43:38.526Z,17.299999
2019-03-30T10:43:51.307Z,17.200001
2019-03-30T10:44:04.065Z,17.1
2019-03-30T10:44:17.824Z,17.299999
2019-03-30T10:44:30.536Z,17
2019-03-30T10:44:43.248Z,17
2019-03-30T10:44:55.941Z,17.299999
2019-03-30T10:45:08.559Z,17.5
2019-03-30T10:45:21.215Z,17
2019-03-30T10:45:33.945Z,16.299999
2019-03-30T10:45:46.642Z,16.9
2019-03-30T10:46:00.069Z,16.9
2019-03-30T10:46:12.836Z,17.799999
2019-03-30T10:46:25.582Z,16.799999
2019-03-30T10:46:38.341Z,16.200001
2019-03-30T10:46:51.057Z,16.700001
2019-03-30T10:47:03.715Z,17.799999
2019-03-30T10:47:16.384Z,17.5
2019-03-30T10:47:29.085Z,17.700001
2019-03-30T10:47:41.844Z,17.6
2019-03-30T10:47:54.632Z,16.9
2019-03-30T10:48:07.349Z,15.8
2019-03-30T10:48:20.027Z,16.5
2019-03-30T10:48:32.797Z,16.700001
2019-03-30T10:48:45.546Z,16.4
2019-03-30T10:48:58.285Z,16.6
2019-03-30T10:49:11.052Z,17.4
2019-03-30T10:49:23.692Z,17
2019-03-30T10:49:36.280Z,17.700001
2019-03-30T10:49:48.970Z,17.700001
2019-03-30T10:50:02.594Z,16.799999
2019-03-30T10:50:15.229Z,15.6
2019-03-30T10:50:27.850Z,15.6
2019-03-30T10:50:40.541Z,16.6
2019-03-30T10:50:53.930Z,16.700001
2019-03-30T10:51:06.585Z,16.4
2019-03-30T10:51:19.264Z,17
2019-03-30T10:51:32.337Z,16.700001
2019-03-30T10:51:45.088Z,16.700001
2019-03-30T10:51:59.749Z,15.2
2019-03-30T10:52:12.521Z,15.3
2019-03-30T10:52:25.501Z,17
2019-03-30T10:52:39.292Z,18.1
2019-03-30T10:52:52.043Z,17.9
2019-03-30T10:53:04.775Z,17.6
2019-03-30T10:53:17.565Z,17.1
2019-03-30T10:53:31.352Z,17
2019-03-30T10:53:44.242Z,16.799999
2019-03-30T10:53:56.995Z,16.200001
2019-03-30T10:54:09.791Z,16.700001
2019-03-30T10:54:23.248Z,16.5
2019-03-30T10:54:35.987Z,16.1
2019-03-30T10:54:55.630Z,16.200001
2019-03-30T10:55:08.374Z,16
2019-03-30T10:55:21.089Z,16.1
2019-03-30T10:55:33.818Z,17.1
2019-03-30T10:55:46.603Z,17.299999
2019-03-30T10:55:59.291Z,17.4
2019-03-30T10:56:12.000Z,16.700001
2019-03-30T10:56:24.730Z,15.8
2019-03-30T10:56:37.420Z,15.5
2019-03-30T10:56:52.016Z,14.4
2019-03-30T10:57:04.822Z,14.7
2019-03-30T10:57:17.520Z,15.3
2019-03-30T10:57:30.185Z,15.8
2019-03-30T10:57:43.953Z,15.9
2019-03-30T10:57:58.704Z,15.9
2019-03-30T10:58:11.387Z,15.5
2019-03-30T10:58:24.151Z,15.3
2019-03-30T10:58:36.837Z,14.6
2019-03-30T10:58:49.715Z,15.1
2019-03-30T10:59:02.553Z,15.6
2019-03-30T10:59:15.320Z,16.1
2019-03-30T10:59:28.086Z,16.4
2019-03-30T10:59:40.820Z,16.9
2019-03-30T10:59:53.522Z,16.700001
2019-03-30T11:00:06.237Z,16.5
2019-03-30T11:00:18.954Z,17
2019-03-30T11:00:32.452Z,16.700001
2019-03-30T11:00:45.179Z,16
2019-03-30T11:00:57.965Z,15.9
2019-03-30T11:01:10.756Z,16.9
2019-03-30T11:01:23.589Z,17.799999
2019-03-30T11:01:36.620Z,18.6
2019-03-30T11:01:50.647Z,18.700001
2019-03-30T11:02:03.656Z,19.6
2019-03-30T11:02:17.638Z,18.5
2019-03-30T11:02:30.647Z,16.299999
2019-03-30T11:02:43.656Z,15.3
2019-03-30T11:02:56.626Z,14.7
2019-03-30T11:03:10.727Z,14.4
2019-03-30T11:03:23.797Z,15.2
2019-03-30T11:03:36.885Z,15.7
2019-03-30T11:03:49.836Z,15.3
2019-03-30T11:04:02.889Z,15.3
2019-03-30T11:04:15.707Z,15.4
2019-03-30T11:04:28.534Z,14.3
2019-03-30T11:04:43.303Z,13.2
2019-03-30T11:04:56.053Z,12.9
2019-03-30T11:05:08.808Z,13.7
2019-03-30T11:05:21.547Z,14.2
2019-03-30T11:05:34.353Z,15
2019-03-30T11:05:47.180Z,15.5
2019-03-30T11:06:00.004Z,14.7
2019-03-30T11:06:13.464Z,13.9
2019-03-30T11:06:26.255Z,13
2019-03-30T11:06:39.074Z,13.4
2019-03-30T11:06:51.860Z,13.5
2019-03-30T11:07:04.739Z,14.3
2019-03-30T11:07:17.526Z,14.6
2019-03-30T11:07:30.356Z,14.7
2019-03-30T11:07:43.302Z,14.4
2019-03-30T11:07:56.099Z,14.3
2019-03-30T11:08:09.928Z,13.9
2019-03-30T11:08:22.691Z,13.9
2019-03-30T11:08:35.491Z,14.1
2019-03-30T11:08:48.258Z,14.3
2019-03-30T11:09:00.974Z,13.9
2019-03-30T11:09:13.743Z,13.8
2019-03-30T11:09:26.452Z,12.9
2019-03-30T11:09:39.226Z,13.3
2019-03-30T11:09:53.992Z,14.3
2019-03-30T11:10:07.392Z,15.5
2019-03-30T11:10:20.094Z,15.5
2019-03-30T11:10:32.728Z,15.1
2019-03-30T11:10:45.445Z,13.7
2019-03-30T11:10:58.084Z,13
2019-03-30T11:11:10.678Z,13.5
2019-03-30T11:11:23.277Z,14
2019-03-30T11:11:37.505Z,14.5
2019-03-30T11:11:50.127Z,14.7
2019-03-30T11:12:02.759Z,14.4
2019-03-30T11:12:16.348Z,14.4
2019-03-30T11:12:28.999Z,14.7
2019-03-30T11:12:41.618Z,14.7
2019-03-30T11:12:54.204Z,13.9
2019-03-30T11:13:09.316Z,15.3
2019-03-30T11:13:21.943Z,16.4
2019-03-30T11:13:34.637Z,16.1
2019-03-30T11:13:47.353Z,15.1
2019-03-30T11:14:00.107Z,14.4
2019-03-30T11:14:12.831Z,15.2
2019-03-30T11:14:25.594Z,14.1
2019-03-30T11:14:38.376Z,14.4
2019-03-30T11:14:51.080Z,14.7
2019-03-30T11:15:03.718Z,14.9
2019-03-30T11:15:16.393Z,15.3
2019-03-30T11:15:29.024Z,15.7
2019-03-30T11:15:42.638Z,15.4
2019-03-30T11:15:56.206Z,15.3
2019-03-30T11:16:09.890Z,14.7
2019-03-30T11:16:22.522Z,14.5
2019-03-30T11:16:35.154Z,14.6
2019-03-30T11:16:47.770Z,14.1
2019-03-30T11:17:01.434Z,14
2019-03-30T11:17:14.033Z,14.2
2019-03-30T11:17:27.639Z,15.2
2019-03-30T11:17:40.854Z,15
2019-03-30T11:17:54.459Z,15.6
2019-03-30T11:18:07.709Z,14.8
2019-03-30T11:18:20.297Z,15.5
2019-03-30T11:18:34.882Z,15.7
2019-03-30T11:18:46.572Z,15.9
2019-03-30T11:19:00.182Z,16
2019-03-30T11:19:12.816Z,15.9
2019-03-30T11:19:25.449Z,16.200001
2019-03-30T11:19:38.074Z,14.6
2019-03-30T11:19:51.301Z,13.9
2019-03-30T11:20:03.957Z,14.8
2019-03-30T11:20:17.156Z,15.8
2019-03-30T11:20:29.783Z,16.5
2019-03-30T11:20:42.370Z,17.1
2019-03-30T11:20:54.974Z,18
2019-03-30T11:21:07.607Z,18.799999
2019-03-30T11:21:21.178Z,17.9
2019-03-30T11:21:35.561Z,17.200001
2019-03-30T11:21:48.841Z,15.3
2019-03-30T11:22:03.306Z,14.3
2019-03-30T11:22:16.057Z,14.4
2019-03-30T11:22:28.671Z,14.2
2019-03-30T11:22:42.959Z,14.6
2019-03-30T11:22:56.593Z,15
2019-03-30T11:23:10.207Z,16.299999
2019-03-30T11:23:22.822Z,17.6
2019-03-30T11:23:35.514Z,18.4
2019-03-30T11:23:48.110Z,16.799999
2019-03-30T11:24:00.756Z,16.1
2019-03-30T11:24:15.950Z,17.6
2019-03-30T11:24:28.620Z,16.9
2019-03-30T11:24:41.270Z,17.9
2019-03-30T11:25:06.498Z,20
2019-03-30T11:25:14.498Z,20.4
2019-03-30T11:25:27.974Z,19.6
2019-03-30T11:25:40.687Z,18.6
2019-03-30T11:25:54.312Z,18.6
2019-03-30T11:26:06.923Z,18
2019-03-30T11:26:19.626Z,17.4
2019-03-30T11:26:32.262Z,16.9
2019-03-30T11:26:44.915Z,16.700001
2019-03-30T11:26:57.500Z,15.9
2019-03-30T11:27:10.168Z,14.5
2019-03-30T11:27:22.844Z,14.1
2019-03-30T11:27:35.464Z,13.2
2019-03-30T11:27:48.688Z,14.6
2019-03-30T11:28:01.329Z,16.6
2019-03-30T11:28:13.928Z,18
2019-03-30T11:28:27.355Z,17.9
2019-03-30T11:28:42.435Z,20.4
2019-03-30T11:28:55.072Z,21.200001
2019-03-30T11:29:08.648Z,20.9
2019-03-30T11:29:21.280Z,20.799999
2019-03-30T11:29:33.930Z,20.9
2019-03-30T11:29:47.455Z,21.6
2019-03-30T11:30:00.095Z,18.5
2019-03-30T11:30:13.717Z,14.4
2019-03-30T11:30:26.353Z,12.6
2019-03-30T11:30:39.939Z,13.5
2019-03-30T11:30:53.578Z,16.799999
2019-03-30T11:31:08.191Z,19.700001
2019-03-30T11:31:21.787Z,19.799999
2019-03-30T11:31:35.975Z,19.6
2019-03-30T11:31:48.620Z,19.9
2019-03-30T11:32:02.144Z,19.5
2019-03-30T11:32:17.193Z,18.6
2019-03-30T11:32:29.805Z,19
2019-03-30T11:32:42.447Z,20.299999
2019-03-30T11:32:55.069Z,20.5
2019-03-30T11:33:09.219Z,19.9
2019-03-30T11:33:23.706Z,19.700001
2019-03-30T11:33:36.518Z,18.799999
2019-03-30T11:33:49.216Z,17.700001
2019-03-30T11:34:01.856Z,16.5
2019-03-30T11:34:15.468Z,15
2019-03-30T11:34:28.124Z,13.8
2019-03-30T11:34:41.325Z,13.6
2019-03-30T11:34:53.928Z,12.7
2019-03-30T11:35:07.442Z,11.9
2019-03-30T11:35:21.375Z,11.6
2019-03-30T11:35:34.728Z,11.3
2019-03-30T11:35:47.513Z,11.6
2019-03-30T11:36:01.160Z,11.5
2019-03-30T11:36:13.790Z,11.3
2019-03-30T11:36:28.542Z,12.2
2019-03-30T11:36:41.947Z,11.5
2019-03-30T11:36:54.710Z,10.7
2019-03-30T11:37:07.457Z,11.4
2019-03-30T11:37:20.231Z,11.4
2019-03-30T11:37:32.905Z,11.3
2019-03-30T11:37:45.551Z,11.5
2019-03-30T11:37:58.227Z,11.6
2019-03-30T11:38:11.392Z,12
2019-03-30T11:38:24.357Z,12.1
2019-03-30T11:38:38.848Z,12
2019-03-30T11:38:52.452Z,12.6